Time;durP1;ratioP1;P1;durP2;ratioP2;P2;SDS_P1;SDS_P2;PMS_P1;PMS_P2;Temp;Humidity;BMP_temperature;BMP_pressure;BME280_temperature;BME280_humidity;BME280_pressure;Samples;Min_cycle;Max_cycle;Signal;HPM_P1;HPM_P2
2023/03/01 00:00:11;;;;;;;11.43;7.80;;;;;;;5.13;90.64;102373.94;5026590;28;20037;-84
2023/03/01 00:02:37;;;;;;;14.63;7.70;;;;;;;5.18;90.35;102368.78;5010015;28;20034;-84
2023/03/01 00:05:03;;;;;;;17.85;7.80;;;;;;;5.10;90.37;102378.19;5010218;28;20099;-84
2023/03/01 00:07:28;;;;;;;15.23;7.78;;;;;;;5.08;90.40;102374.75;5026502;28;20108;-83
2023/03/01 00:09:54;;;;;;;16.05;8.10;;;;;;;5.16;89.64;102373.06;5026093;28;20038;-83
2023/03/01 00:12:20;;;;;;;10.55;7.55;;;;;;;5.07;90.04;102339.72;5009683;28;20517;-83
2023/03/01 00:14:45;;;;;;;20.67;8.25;;;;;;;5.16;89.76;102370.50;5009874;28;20030;-84
2023/03/01 00:17:11;;;;;;;8.00;6.25;;;;;;;5.18;89.74;102371.34;5009662;28;20030;-84
2023/03/01 00:19:36;;;;;;;14.00;8.23;;;;;;;5.22;89.92;102372.25;5025990;28;20493;-83
2023/03/01 00:22:02;;;;;;;12.07;7.13;;;;;;;5.19;89.04;102368.78;4993325;28;20508;-84
2023/03/01 00:24:27;;;;;;;19.98;8.48;;;;;;;5.20;89.24;102351.69;5025976;28;20041;-84
2023/03/01 00:26:55;;;;;;;12.23;6.70;;;;;;;5.30;88.74;102363.66;5009457;28;20030;-83
2023/03/01 00:29:21;;;;;;;12.80;7.20;;;;;;;5.21;89.49;102358.56;4993468;28;20057;-84
2023/03/01 00:31:47;;;;;;;15.20;7.65;;;;;;;5.22;89.60;102355.13;5010109;28;20030;-84
2023/03/01 00:34:12;;;;;;;17.25;8.63;;;;;;;5.09;89.88;102345.69;5009743;28;20040;-83
2023/03/01 00:36:38;;;;;;;19.90;8.50;;;;;;;5.10;89.88;102339.69;5009622;28;20037;-83
2023/03/01 00:39:04;;;;;;;18.02;8.30;;;;;;;5.11;90.19;102349.09;5009421;28;20041;-84
2023/03/01 00:41:30;;;;;;;15.30;8.02;;;;;;;5.13;90.38;102342.28;5009696;28;20117;-83
2023/03/01 00:43:55;;;;;;;14.27;7.93;;;;;;;5.00;89.98;102325.16;5026153;28;20080;-84
2023/03/01 00:46:23;;;;;;;17.13;8.15;;;;;;;5.06;90.56;102341.41;5009538;28;20575;-84
2023/03/01 00:48:48;;;;;;;10.52;6.05;;;;;;;5.11;90.40;102341.41;5009206;28;20113;-84
2023/03/01 00:51:19;;;;;;;11.77;7.78;;;;;;;5.06;90.59;102335.44;5025720;28;20049;-84
2023/03/01 00:53:45;;;;;;;17.67;7.60;;;;;;;5.09;90.60;102333.72;5009194;28;20028;-84
2023/03/01 00:56:11;;;;;;;22.02;8.95;;;;;;;5.14;90.29;102328.59;5026237;28;20113;-84
2023/03/01 00:58:37;;;;;;;14.68;8.07;;;;;;;5.17;90.39;102326.88;5009302;28;20026;-83
2023/03/01 01:01:19;;;;;;;11.45;8.02;;;;;;;5.10;90.08;102316.63;5009560;28;20026;-83
2023/03/01 01:03:58;;;;;;;16.90;7.22;;;;;;;5.02;90.41;102302.94;5029525;28;20096;-84
2023/03/01 01:06:29;;;;;;;13.25;7.18;;;;;;;4.95;90.44;102294.38;5013447;28;20034;-83
2023/03/01 01:08:54;;;;;;;25.13;8.68;;;;;;;5.09;90.95;102317.47;5029674;28;20069;-84
2023/03/01 01:11:20;;;;;;;15.30;8.35;;;;;;;4.92;90.71;102290.94;5013602;28;20103;-84
2023/03/01 01:13:46;;;;;;;20.17;8.18;;;;;;;5.17;90.70;102326.88;5029604;28;20030;-84
2023/03/01 01:16:12;;;;;;;15.52;7.93;;;;;;;5.13;91.08;102319.19;5013191;28;20116;-84
2023/03/01 01:18:37;;;;;;;16.60;7.20;;;;;;;5.16;90.80;102321.75;5012933;28;20026;-84
2023/03/01 01:21:13;;;;;;;9.93;6.25;;;;;;;5.15;90.51;102304.66;5013330;28;20504;-84
2023/03/01 01:23:39;;;;;;;16.45;9.57;;;;;;;5.21;89.97;102314.94;5012720;28;20030;-84
2023/03/01 01:26:24;;;;;;;11.90;7.07;;;;;;;5.25;89.90;102314.06;5012975;28;20061;-84
2023/03/01 01:28:50;;;;;;;13.00;8.85;;;;;;;5.18;90.07;102309.78;5029342;28;20032;-83
2023/03/01 01:31:15;;;;;;;10.73;7.05;;;;;;;5.14;90.42;102303.81;5012950;28;20401;-83
2023/03/01 01:33:41;;;;;;;14.38;8.52;;;;;;;4.97;90.46;102284.13;5029335;28;20038;-83
2023/03/01 01:36:06;;;;;;;6.55;5.78;;;;;;;5.08;90.33;102308.91;5012756;28;20034;-83
2023/03/01 01:38:32;;;;;;;9.15;7.00;;;;;;;5.10;90.42;102303.78;5028908;28;20026;-83
2023/03/01 01:40:58;;;;;;;9.73;7.63;;;;;;;5.06;90.50;102289.25;5012730;28;20030;-83
2023/03/01 01:43:29;;;;;;;21.17;9.00;;;;;;;5.10;90.76;102296.09;5012696;28;20026;-84
2023/03/01 01:46:30;;;;;;;14.70;6.07;;;;;;;5.18;90.37;102300.38;5012739;28;20052;-83
2023/03/01 01:49:01;;;;;;;9.57;5.60;;;;;;;5.09;90.61;102299.50;5009714;28;20046;-84
2023/03/01 01:51:38;;;;;;;10.52;8.02;;;;;;;5.09;90.86;102294.38;5012441;28;20497;-84
2023/03/01 01:54:06;;;;;;;13.15;6.82;;;;;;;5.12;90.88;102291.84;5012582;28;20037;-83
2023/03/01 01:56:31;;;;;;;7.80;5.78;;;;;;;5.05;89.96;102285.84;5012510;28;20062;-83
2023/03/01 01:58:56;;;;;;;7.60;5.78;;;;;;;4.93;90.55;102285.00;5012144;28;20041;-84
2023/03/01 02:01:22;;;;;;;8.45;5.10;;;;;;;4.89;90.76;102272.13;5012083;28;20034;-83
2023/03/01 02:03:47;;;;;;;9.80;4.78;;;;;;;4.83;91.04;102272.16;5012087;28;20057;-84
2023/03/01 02:06:30;;;;;;;10.20;5.78;;;;;;;5.01;90.96;102298.66;5011987;28;20165;-84
2023/03/01 02:09:04;;;;;;;10.60;5.88;;;;;;;4.96;90.76;102278.13;5012532;28;20045;-83
2023/03/01 02:11:30;;;;;;;7.45;5.53;;;;;;;4.86;90.87;102267.03;4995740;28;20030;-83
2023/03/01 02:13:56;;;;;;;16.27;8.43;;;;;;;4.92;91.19;102281.56;5011134;28;20034;-84
2023/03/01 02:16:21;;;;;;;20.30;8.57;;;;;;;4.84;91.32;102271.31;5012024;28;20037;-83
2023/03/01 02:18:47;;;;;;;8.93;5.40;;;;;;;4.93;91.37;102285.84;5012098;28;20056;-84
2023/03/01 02:21:37;;;;;;;5.93;5.10;;;;;;;5.03;91.27;102292.69;5011688;28;20034;-83
2023/03/01 02:27:37;;;;;;;10.73;5.90;;;;;;;4.72;92.07;102244.75;4998793;28;20072;-84
2023/03/01 02:30:02;;;;;;;6.85;4.72;;;;;;;4.65;92.04;102233.66;5011795;28;20128;-83
2023/03/01 02:32:28;;;;;;;11.30;6.45;;;;;;;4.89;91.62;102277.28;5011823;28;20026;-84
2023/03/01 02:34:54;;;;;;;10.82;8.10;;;;;;;5.03;91.56;102277.28;5028543;28;20055;-84
2023/03/01 02:37:24;;;;;;;11.13;7.63;;;;;;;5.00;91.25;102268.72;5011356;28;20049;-84
2023/03/01 02:39:57;;;;;;;12.10;6.53;;;;;;;5.05;91.23;102260.19;5011775;28;20113;-83
2023/03/01 02:42:26;;;;;;;10.68;7.05;;;;;;;5.05;90.42;102261.91;5027511;28;20409;-84
2023/03/01 02:44:51;;;;;;;11.43;6.03;;;;;;;5.17;90.60;102277.28;5011620;28;20065;-84
2023/03/01 02:47:17;;;;;;;13.40;6.22;;;;;;;5.03;90.58;102253.34;5011204;28;20061;-84
2023/03/01 02:49:42;;;;;;;5.93;4.43;;;;;;;5.08;90.86;102261.88;5011055;28;20037;-84
2023/03/01 02:52:43;;;;;;;12.38;7.50;;;;;;;5.14;90.81;102261.91;5027545;28;20054;-83
2023/03/01 02:55:13;;;;;;;6.82;5.00;;;;;;;5.09;90.53;102266.16;5006684;28;20038;-83
2023/03/01 02:57:40;;;;;;;11.82;7.65;;;;;;;5.13;90.83;102273.88;5011311;28;20475;-83
2023/03/01 03:00:08;;;;;;;16.80;6.50;;;;;;;4.99;90.95;102244.78;5027789;28;20030;-84
2023/03/01 03:02:37;;;;;;;10.13;6.05;;;;;;;5.14;90.27;102256.78;5011145;28;20100;-84
2023/03/01 03:05:14;;;;;;;7.57;4.80;;;;;;;5.18;90.37;102274.72;5026681;28;20018;-84
2023/03/01 03:07:41;;;;;;;9.35;6.72;;;;;;;5.03;90.44;102253.34;5010884;28;20037;-84
2023/03/01 03:10:08;;;;;;;13.77;7.43;;;;;;;5.14;90.63;102270.44;5010731;28;20445;-84
2023/03/01 03:12:34;;;;;;;15.25;5.88;;;;;;;5.00;90.51;102251.63;5010712;28;20030;-83
2023/03/01 03:14:59;;;;;;;10.85;7.30;;;;;;;5.14;90.45;102254.22;5027366;28;20042;-83
2023/03/01 03:17:25;;;;;;;17.70;8.50;;;;;;;5.13;90.49;102261.03;5010897;28;20497;-83
2023/03/01 03:19:50;;;;;;;9.00;7.18;;;;;;;5.15;90.34;102254.19;5010488;28;20120;-84
2023/03/01 03:22:16;;;;;;;11.57;6.53;;;;;;;5.08;90.51;102246.50;5010548;28;20032;-84
2023/03/01 03:24:41;;;;;;;11.48;7.00;;;;;;;4.87;90.39;102202.06;5010694;28;20041;-83
2023/03/01 03:27:07;;;;;;;10.15;7.57;;;;;;;5.15;90.58;102253.34;5010888;28;20034;-83
2023/03/01 03:29:33;;;;;;;8.00;5.85;;;;;;;5.10;91.12;102242.22;5010781;28;20508;-83
2023/03/01 03:31:58;;;;;;;12.75;5.05;;;;;;;5.11;90.32;102251.63;5027188;28;20025;-83
2023/03/01 03:34:24;;;;;;;7.45;5.38;;;;;;;5.04;90.64;102240.53;5010459;28;20030;-83
2023/03/01 03:36:56;;;;;;;11.32;6.22;;;;;;;5.15;90.48;102248.22;5010364;28;20041;-84
2023/03/01 03:39:23;;;;;;;17.02;8.27;;;;;;;5.14;90.82;102249.06;5010386;28;20060;-83
2023/03/01 03:41:48;;;;;;;15.23;7.32;;;;;;;5.16;91.02;102249.91;5026718;28;20034;-83
2023/03/01 03:44:14;;;;;;;11.82;6.57;;;;;;;5.11;90.83;102251.63;5010419;28;20026;-84
2023/03/01 03:46:39;;;;;;;17.67;8.15;;;;;;;5.17;90.83;102249.06;5026835;28;20560;-83
2023/03/01 03:49:05;;;;;;;10.50;6.05;;;;;;;5.09;90.66;102231.09;5009957;28;20460;-83
2023/03/01 03:51:30;;;;;;;10.43;7.15;;;;;;;5.22;90.83;102251.63;5010025;28;20049;-83
2023/03/01 03:53:55;;;;;;;11.27;6.60;;;;;;;5.15;90.07;102232.81;5010137;28;20042;-83
2023/03/01 03:56:25;;;;;;;14.70;9.02;;;;;;;5.26;90.50;102261.88;5010298;28;20168;-83
2023/03/01 03:58:52;;;;;;;10.50;6.85;;;;;;;5.24;90.32;102248.22;5026154;28;20033;-83
2023/03/01 04:01:17;;;;;;;8.18;4.63;;;;;;;5.19;90.14;102237.94;5026583;28;20044;-83
2023/03/01 04:03:46;;;;;;;13.35;5.32;;;;;;;5.12;90.11;102240.53;5026006;28;20493;-83
2023/03/01 04:06:12;;;;;;;7.68;5.63;;;;;;;5.19;89.77;102247.34;5010199;28;20063;-80
2023/03/01 04:08:37;;;;;;;10.32;4.53;;;;;;;5.27;89.89;102255.91;5007365;28;20029;-83
2023/03/01 04:11:25;;;;;;;5.50;3.85;;;;;;;5.40;89.30;102267.84;4993893;28;20044;-83
2023/03/01 04:13:49;;;;;;;9.20;6.18;;;;;;;5.36;88.61;102245.63;5009496;28;20418;-83
2023/03/01 04:16:14;;;;;;;8.32;5.32;;;;;;;5.53;88.28;102267.84;4993397;28;20029;-83
2023/03/01 04:18:40;;;;;;;12.20;7.13;;;;;;;5.47;88.02;102246.44;4976561;28;20040;-83
2023/03/01 04:21:05;;;;;;;13.43;7.32;;;;;;;5.57;88.07;102256.69;4993393;28;20037;-86
2023/03/01 04:23:31;;;;;;;7.78;6.13;;;;;;;5.49;88.12;102254.16;4993408;28;20030;-88
2023/03/01 04:25:57;;;;;;;6.47;5.38;;;;;;;5.37;88.14;102247.31;4993398;28;20022;-89
2023/03/01 04:28:26;;;;;;;14.55;6.88;;;;;;;5.34;88.47;102259.31;4994015;28;20555;-88
2023/03/01 04:30:53;;;;;;;13.82;7.72;;;;;;;5.34;88.86;102246.50;5026398;28;20030;-89
2023/03/01 04:33:18;;;;;;;12.23;8.25;;;;;;;5.23;89.41;102237.94;4977262;28;20030;-89
2023/03/01 04:35:44;;;;;;;8.65;6.88;;;;;;;5.26;89.47;102243.94;4994363;28;20033;-90
2023/03/01 04:38:09;;;;;;;16.63;8.98;;;;;;;5.25;89.95;102249.91;4992793;28;20030;-88
2023/03/01 04:40:35;;;;;;;12.88;7.57;;;;;;;5.24;89.13;102226.81;4992665;28;20033;-89
2023/03/01 04:43:01;;;;;;;9.82;7.45;;;;;;;5.05;89.58;102208.03;4993142;28;20045;-90
2023/03/01 04:45:27;;;;;;;13.68;6.60;;;;;;;5.21;89.72;102221.69;5010279;28;20044;-93
2023/03/01 04:47:53;;;;;;;18.23;8.88;;;;;;;5.38;89.07;102245.63;4993739;28;20433;-92
2023/03/01 04:50:20;;;;;;;11.95;8.63;;;;;;;5.22;89.70;102228.56;4994129;28;20125;-92
2023/03/01 04:52:46;;;;;;;6.53;4.65;;;;;;;5.17;89.81;102242.22;4994301;28;20503;-93
2023/03/01 04:55:11;;;;;;;9.25;5.53;;;;;;;5.24;90.00;102252.50;4977817;28;20087;-91
2023/03/01 04:57:38;;;;;;;9.75;7.03;;;;;;;5.11;90.10;102237.13;4993621;28;20053;-90
2023/03/01 05:00:20;;;;;;;15.30;5.30;;;;;;;5.15;90.29;102243.94;4993359;28;20026;-88
2023/03/01 05:02:56;;;;;;;20.43;9.63;;;;;;;5.16;90.37;102245.66;4996240;28;20037;-95
2023/03/01 05:05:35;;;;;;;13.88;5.55;;;;;;;5.27;90.33;102255.91;4994047;28;20041;-86
2023/03/01 05:08:03;;;;;;;9.55;5.97;;;;;;;5.11;90.13;102220.84;4994689;28;20044;-88
2023/03/01 05:10:29;;;;;;;23.98;9.93;;;;;;;5.16;89.98;102239.66;4979173;28;20069;-89
2023/03/01 05:12:57;;;;;;;10.93;8.15;;;;;;;5.15;90.33;102253.34;5005600;28;20081;-91
2023/03/01 05:15:25;;;;;;;22.27;7.40;;;;;;;5.14;90.16;102246.50;5026955;28;20101;-92
2023/03/01 05:17:51;;;;;;;13.68;7.95;;;;;;;5.15;89.92;102245.66;5026155;28;20041;-89
2023/03/01 05:20:17;;;;;;;15.77;7.63;;;;;;;5.15;89.44;102238.81;5025559;28;20030;-84
2023/03/01 05:22:42;;;;;;;10.10;6.40;;;;;;;5.17;90.00;102269.59;5005506;28;20022;-85
2023/03/01 05:25:08;;;;;;;11.23;7.97;;;;;;;5.17;90.89;102257.63;5031209;28;20021;-90
2023/03/01 05:27:34;;;;;;;12.73;5.93;;;;;;;5.18;90.66;102249.06;5011151;28;20535;-91
2023/03/01 05:30:13;;;;;;;12.02;6.03;;;;;;;5.22;89.69;102249.94;5009564;28;20025;-83
2023/03/01 05:32:39;;;;;;;15.43;8.25;;;;;;;5.33;90.06;102266.16;5023432;28;20049;-90
2023/03/01 05:35:07;;;;;;;11.80;6.82;;;;;;;5.29;89.47;102250.75;5026932;28;20040;-94
2023/03/01 05:37:32;;;;;;;10.90;7.13;;;;;;;5.30;89.71;102258.44;5011188;28;20034;-84
2023/03/01 05:39:57;;;;;;;12.07;6.47;;;;;;;5.35;89.55;102256.75;5025167;28;20025;-80
2023/03/01 05:42:23;;;;;;;9.60;6.53;;;;;;;5.42;88.92;102265.31;5026367;28;20514;-95
2023/03/01 05:44:48;;;;;;;12.55;5.35;;;;;;;5.46;89.04;102265.28;5025863;28;20034;-86
2023/03/01 05:47:14;;;;;;;17.63;12.10;;;;;;;5.48;88.91;102263.56;4992964;28;20029;-95
2023/03/01 05:49:40;;;;;;;40.97;24.52;;;;;;;5.41;88.61;102253.34;5030524;28;20481;-96
2023/03/01 05:52:05;;;;;;;109.38;55.53;;;;;;;5.44;88.58;102261.88;5029366;28;20042;-90
2023/03/01 05:54:31;;;;;;;25.45;13.93;;;;;;;5.27;88.80;102240.50;4999356;28;20065;-93
2023/03/01 05:56:57;;;;;;;13.38;7.28;;;;;;;5.33;88.95;102243.06;5006851;28;20030;-86
2023/03/01 05:59:22;;;;;;;10.48;7.32;;;;;;;5.33;89.09;102237.94;5012547;28;20469;-83
2023/03/01 06:01:48;;;;;;;16.55;8.48;;;;;;;5.32;89.33;102241.38;5006853;28;20026;-95
2023/03/01 06:04:13;;;;;;;10.38;6.13;;;;;;;5.10;89.22;102198.59;5009815;28;20084;-87
2023/03/01 06:06:39;;;;;;;16.45;8.63;;;;;;;5.23;89.00;102243.94;5025932;28;20030;-92
2023/03/01 06:09:07;;;;;;;21.63;7.40;;;;;;;5.26;89.17;102251.63;5013736;28;20038;-92
2023/03/01 06:11:33;;;;;;;9.13;5.82;;;;;;;5.20;89.17;102246.47;5028874;28;20048;-90
2023/03/01 06:13:59;;;;;;;9.57;6.53;;;;;;;5.16;90.34;102250.78;5002634;28;20510;-89
2023/03/01 06:16:24;;;;;;;7.10;6.05;;;;;;;5.20;89.30;102241.34;4978228;28;20085;-93
2023/03/01 06:18:50;;;;;;;8.23;6.45;;;;;;;5.27;90.14;102253.31;5011594;28;20385;-88
2023/03/01 06:21:15;;;;;;;14.38;6.50;;;;;;;4.97;89.22;102199.47;5028366;28;20036;-85
2023/03/01 06:23:41;;;;;;;12.15;6.65;;;;;;;5.27;89.48;102255.91;5013118;28;20414;-83
2023/03/01 06:26:07;;;;;;;8.73;5.57;;;;;;;5.35;89.44;102264.44;5015280;28;20030;-84
2023/03/01 06:28:32;;;;;;;11.02;7.40;;;;;;;5.36;88.73;102257.59;5009758;28;20512;-86
2023/03/01 06:30:58;;;;;;;8.90;5.95;;;;;;;5.27;88.91;102267.88;5016565;28;20037;-90
2023/03/01 06:33:24;;;;;;;10.43;6.50;;;;;;;5.23;88.86;102267.03;5007878;28;20473;-90
2023/03/01 06:35:50;;;;;;;14.75;7.43;;;;;;;5.27;88.48;102267.88;4992300;28;20036;-89
2023/03/01 06:38:17;;;;;;;8.15;6.00;;;;;;;5.21;88.63;102268.75;5011947;28;20453;-96
2023/03/01 06:40:42;;;;;;;9.27;6.28;;;;;;;5.18;88.82;102268.72;5006569;28;20413;-92
2023/03/01 06:43:08;;;;;;;8.98;5.38;;;;;;;5.17;88.61;102256.75;5004358;28;20469;-88
2023/03/01 06:45:33;;;;;;;11.00;5.75;;;;;;;5.23;88.74;102267.03;5008383;28;20034;-95
2023/03/01 06:48:06;;;;;;;5.70;4.53;;;;;;;5.37;88.83;102278.13;5013795;28;20026;-95
2023/03/01 06:50:31;;;;;;;16.48;7.65;;;;;;;5.36;88.29;102278.97;5001817;28;20084;-96
2023/03/01 06:52:58;;;;;;;12.85;6.70;;;;;;;5.32;88.36;102273.88;5000347;28;20077;-96
2023/03/01 06:55:23;;;;;;;13.18;6.75;;;;;;;5.29;88.55;102268.72;5020788;28;20045;-96
2023/03/01 06:57:48;;;;;;;15.25;8.32;;;;;;;5.30;88.69;102289.25;4999865;28;20029;-94
2023/03/01 07:00:14;;;;;;;11.35;7.47;;;;;;;5.32;88.95;102290.13;5022991;28;20026;-90
2023/03/01 07:02:40;;;;;;;17.85;10.73;;;;;;;5.41;88.68;102286.69;5003865;28;20033;-93
2023/03/01 07:05:06;;;;;;;14.60;7.85;;;;;;;5.36;88.52;102286.69;5016916;28;20493;-94
2023/03/01 07:07:31;;;;;;;13.15;7.30;;;;;;;5.36;87.86;102273.84;5012817;28;20527;-90
2023/03/01 07:09:57;;;;;;;16.58;9.75;;;;;;;5.26;88.00;102256.75;5029262;28;20036;-81
2023/03/01 07:12:23;;;;;;;18.85;8.70;;;;;;;5.44;88.24;102287.53;5031719;28;20485;-93
2023/03/01 07:14:48;;;;;;;12.90;9.07;;;;;;;5.39;88.20;102258.44;5033327;28;20071;-86
2023/03/01 07:17:14;;;;;;;8.88;6.55;;;;;;;5.40;87.99;102249.88;5013761;28;20897;-89
2023/03/01 07:19:39;;;;;;;10.93;6.75;;;;;;;5.51;87.33;102277.28;5035055;28;20040;-84
2023/03/01 07:22:07;;;;;;;15.32;6.68;;;;;;;5.55;87.72;102284.09;5038829;28;20029;-91
2023/03/01 07:24:33;;;;;;;14.20;7.07;;;;;;;5.53;87.66;102280.69;5026763;28;20029;-92
2023/03/01 07:26:58;;;;;;;14.88;6.53;;;;;;;5.51;88.08;102270.44;5064568;22;20080;-86
2023/03/01 07:29:24;;;;;;;12.13;7.80;;;;;;;5.72;88.04;102280.66;4994761;28;20552;-94
2023/03/01 07:31:49;;;;;;;6.68;4.70;;;;;;;5.66;87.74;102272.09;5007149;28;20040;-94
2023/03/01 07:34:15;;;;;;;12.10;7.57;;;;;;;5.40;87.17;102229.34;4994700;28;20073;-86
2023/03/01 07:36:42;;;;;;;12.48;7.00;;;;;;;5.72;87.16;102267.81;5027861;28;20076;-90
2023/03/01 07:39:09;;;;;;;13.75;7.47;;;;;;;5.63;86.78;102264.41;4991396;28;20053;-86
2023/03/01 07:41:35;;;;;;;9.77;5.75;;;;;;;5.69;86.88;102274.63;4988903;28;20022;-82
2023/03/01 07:44:00;;;;;;;14.00;8.20;;;;;;;5.75;87.17;102274.63;4990675;28;20061;-86
2023/03/01 07:46:25;;;;;;;7.63;5.72;;;;;;;5.65;87.28;102278.09;5010075;28;20021;-92
2023/03/01 07:48:51;;;;;;;12.80;7.47;;;;;;;5.58;87.13;102264.41;4989271;28;20544;-92
2023/03/01 07:51:16;;;;;;;9.90;5.53;;;;;;;5.63;86.79;102274.69;4992015;28;20030;-90
2023/03/01 07:53:42;;;;;;;7.95;5.45;;;;;;;5.61;86.49;102268.69;4972444;28;20062;-89
2023/03/01 07:56:10;;;;;;;9.18;6.80;;;;;;;5.64;87.33;102281.50;5003129;28;20497;-90
2023/03/01 07:58:36;;;;;;;11.05;8.02;;;;;;;5.61;86.80;102268.69;4971484;28;20031;-89
2023/03/01 08:01:05;;;;;;;19.08;9.75;;;;;;;5.53;87.05;102276.41;4991034;28;20030;-89
2023/03/01 08:03:31;;;;;;;13.88;6.30;;;;;;;5.39;87.30;102261.00;4978367;28;20554;-91
2023/03/01 08:05:59;;;;;;;7.65;4.47;;;;;;;5.63;87.10;102274.69;4983683;28;20112;-92
2023/03/01 08:08:25;;;;;;;16.88;9.68;;;;;;;5.63;86.93;102283.22;5004660;28;20040;-89
2023/03/01 08:10:50;;;;;;;11.95;7.53;;;;;;;5.73;86.36;102279.78;4963558;28;20026;-93
2023/03/01 08:13:16;;;;;;;16.45;7.70;;;;;;;5.75;86.58;102274.63;4983090;28;20042;-90
2023/03/01 08:15:41;;;;;;;12.45;7.93;;;;;;;5.72;86.50;102272.94;4988602;28;20036;-83
2023/03/01 08:18:07;;;;;;;15.18;9.63;;;;;;;5.74;85.16;102270.38;5006778;28;20508;-86
2023/03/01 08:20:32;;;;;;;16.08;9.07;;;;;;;5.71;85.53;102260.09;4986324;28;20034;-81
2023/03/01 08:22:58;;;;;;;35.15;18.95;;;;;;;5.72;85.65;102275.50;5007761;28;20492;-87
2023/03/01 08:25:23;;;;;;;19.30;12.77;;;;;;;5.55;86.04;102255.84;5004983;28;20068;-90
2023/03/01 08:27:49;;;;;;;9.52;6.63;;;;;;;5.72;85.98;102274.66;5007086;28;20677;-89
2023/03/01 08:30:14;;;;;;;11.07;7.07;;;;;;;5.59;86.08;102260.13;4989101;28;20061;-87
2023/03/01 08:32:40;;;;;;;14.00;9.65;;;;;;;5.55;86.55;102248.16;5005085;28;20105;-90
2023/03/01 08:35:06;;;;;;;14.20;8.82;;;;;;;5.60;86.86;102254.97;4960927;28;20072;-84
2023/03/01 08:37:33;;;;;;;12.93;9.10;;;;;;;5.72;87.02;102266.94;5006267;28;20052;-87
2023/03/01 08:39:59;;;;;;;10.95;7.05;;;;;;;5.81;86.45;102277.19;4973914;28;20037;-86
2023/03/01 08:42:25;;;;;;;8.98;6.93;;;;;;;5.73;86.56;102272.06;5007902;28;20064;-85
2023/03/01 08:44:51;;;;;;;17.85;9.65;;;;;;;5.57;87.40;102256.69;5007742;28;20033;-88
2023/03/01 08:47:16;;;;;;;19.27;12.35;;;;;;;5.62;87.21;102257.56;5023944;28;20018;-83
2023/03/01 08:49:42;;;;;;;14.70;8.57;;;;;;;5.49;87.90;102231.03;4990588;28;20026;-84
2023/03/01 08:52:07;;;;;;;9.65;7.50;;;;;;;5.64;86.46;102256.69;5021805;28;20489;-85
2023/03/01 08:54:33;;;;;;;14.85;8.93;;;;;;;5.73;86.31;102251.53;4970145;28;20045;-88
2023/03/01 08:57:00;;;;;;;19.75;9.20;;;;;;;5.36;86.15;102196.84;5005339;28;20027;-83
2023/03/01 08:59:26;;;;;;;15.82;9.32;;;;;;;5.85;86.60;102265.19;4993056;28;20101;-85
2023/03/01 09:01:52;;;;;;;14.00;7.00;;;;;;;5.82;85.98;102242.94;5005427;28;20077;-90
2023/03/01 09:04:18;;;;;;;14.30;7.18;;;;;;;5.89;85.59;102249.75;4990195;28;20029;-81
2023/03/01 09:06:43;;;;;;;11.02;6.55;;;;;;;5.95;85.58;102254.91;4991082;28;20034;-91
2023/03/01 09:09:16;;;;;;;9.32;6.38;;;;;;;5.87;85.58;102246.34;5002243;28;20023;-92
2023/03/01 09:11:42;;;;;;;11.35;6.00;;;;;;;5.80;85.38;102254.94;4995465;28;20022;-94
2023/03/01 09:14:08;;;;;;;14.20;7.72;;;;;;;5.76;85.49;102254.09;4989506;28;20486;-88
2023/03/01 09:16:35;;;;;;;8.82;5.15;;;;;;;5.53;85.35;102219.06;5005303;28;20081;-82
2023/03/01 09:19:01;;;;;;;15.40;5.75;;;;;;;5.77;86.15;102260.06;4972990;28;20108;-86
2023/03/01 09:21:26;;;;;;;12.02;7.43;;;;;;;5.72;85.98;102243.84;4992015;28;20409;-85
2023/03/01 09:23:52;;;;;;;11.77;7.00;;;;;;;5.82;86.21;102247.22;5000304;28;20034;-79
2023/03/01 09:26:19;;;;;;;10.65;7.15;;;;;;;5.89;85.69;102249.75;4990231;28;20050;-90
2023/03/01 09:28:45;;;;;;;6.63;3.95;;;;;;;5.80;85.54;102246.34;4992139;28;20022;-88
2023/03/01 09:31:14;;;;;;;13.68;6.85;;;;;;;5.74;85.59;102239.53;4992589;28;20022;-85
2023/03/01 09:33:40;;;;;;;11.02;6.63;;;;;;;5.72;85.89;102241.28;4991044;28;20125;-83
2023/03/01 09:36:08;;;;;;;6.75;5.28;;;;;;;5.68;85.99;102249.81;4990824;28;20601;-90
2023/03/01 09:38:33;;;;;;;11.88;7.75;;;;;;;5.73;86.13;102246.41;4990529;28;20057;-88
2023/03/01 09:41:00;;;;;;;13.27;6.00;;;;;;;5.79;86.61;102232.66;5008235;28;20116;-88
2023/03/01 09:43:45;;;;;;;35.00;21.45;;;;;;;5.92;87.35;102244.66;4992421;28;20129;-88
2023/03/01 09:46:16;;;;;;;20.50;12.40;;;;;;;5.66;85.17;102192.50;5008403;28;20045;-80
2023/03/01 09:48:43;;;;;;;7.05;5.30;;;;;;;5.89;85.54;102236.91;5007126;28;20417;-86
2023/03/01 09:51:14;;;;;;;12.30;5.20;;;;;;;5.80;85.88;102229.25;4993776;28;20034;-88
2023/03/01 09:53:40;;;;;;;13.55;8.52;;;;;;;5.76;86.50;102237.81;4975165;28;20040;-83
2023/03/01 09:56:11;;;;;;;13.45;6.40;;;;;;;5.89;86.13;102243.75;4990834;28;20050;-89
2023/03/01 09:58:45;;;;;;;13.23;6.43;;;;;;;5.86;86.35;102262.63;4966065;28;20414;-88
2023/03/01 10:01:17;;;;;;;18.25;8.10;;;;;;;5.87;86.54;102245.47;4978209;28;20030;-95
2023/03/01 10:03:45;;;;;;;10.25;6.95;;;;;;;5.97;86.09;102242.91;4993035;28;20034;-89
2023/03/01 10:06:14;;;;;;;10.38;6.28;;;;;;;5.98;85.37;102252.31;4985985;28;20025;-86
2023/03/01 10:08:51;;;;;;;10.98;7.55;;;;;;;5.95;85.95;102244.63;4990551;28;20030;-90
2023/03/01 10:11:25;;;;;;;10.40;6.95;;;;;;;6.02;85.97;102248.91;4991986;28;20417;-83
2023/03/01 10:13:57;;;;;;;15.40;7.57;;;;;;;6.05;86.45;102237.75;4971343;28;20034;-89
2023/03/01 10:16:32;;;;;;;11.07;7.35;;;;;;;6.10;85.95;102238.59;4978338;28;20050;-87
2023/03/01 10:19:00;;;;;;;16.90;8.82;;;;;;;6.17;86.28;102235.09;4974547;28;20030;-87
2023/03/01 10:21:26;;;;;;;18.73;9.40;;;;;;;6.16;85.62;102232.56;4982441;28;20038;-89
2023/03/01 10:23:53;;;;;;;13.15;7.43;;;;;;;6.17;85.35;102221.41;5009078;28;20085;-87
2023/03/01 10:26:49;;;;;;;11.05;7.95;;;;;;;6.26;85.16;102223.94;4995454;28;20050;-91
2023/03/01 10:29:14;;;;;;;17.77;9.25;;;;;;;6.22;84.99;102219.69;4992406;28;20026;-86
2023/03/01 10:31:47;;;;;;;11.02;6.68;;;;;;;6.22;85.17;102196.56;4988952;28;20121;-83
2023/03/01 10:34:26;;;;;;;13.93;9.30;;;;;;;6.19;84.39;102202.53;5002470;28;20034;-89
2023/03/01 10:36:53;;;;;;;17.98;10.45;;;;;;;6.25;84.52;102207.66;4987346;28;20022;-87
2023/03/01 10:39:20;;;;;;;10.82;7.28;;;;;;;6.23;84.49;102208.53;4989458;28;20497;-82
2023/03/01 10:42:03;;;;;;;20.35;8.63;;;;;;;6.23;85.36;102195.69;4972854;28;20034;-90
2023/03/01 10:44:46;;;;;;;8.60;5.78;;;;;;;6.43;87.03;102191.28;4964537;28;20526;-85
2023/03/01 10:47:20;;;;;;;10.73;6.97;;;;;;;6.42;85.86;102197.28;4961208;28;20121;-83
2023/03/01 10:50:05;;;;;;;25.20;8.85;;;;;;;6.49;86.54;102201.53;4984529;28;20027;-87
2023/03/01 10:52:37;;;;;;;12.90;8.68;;;;;;;6.44;85.25;102184.41;4977854;28;20046;-89
2023/03/01 10:55:25;;;;;;;11.27;7.20;;;;;;;6.45;85.46;102173.25;4969317;28;20050;-84
2023/03/01 10:57:50;;;;;;;19.02;8.68;;;;;;;6.37;84.74;102183.59;4985310;28;20066;-86
2023/03/01 11:00:18;;;;;;;10.15;6.43;;;;;;;6.32;84.66;102188.78;4981958;28;20065;-83
2023/03/01 11:03:01;;;;;;;14.65;7.82;;;;;;;6.15;85.14;102161.47;4987622;28;20035;-84
2023/03/01 11:05:28;;;;;;;18.00;11.20;;;;;;;6.13;85.01;102160.63;4993009;28;20497;-87
2023/03/01 11:07:53;;;;;;;12.10;6.47;;;;;;;6.27;85.50;102175.09;4987612;28;20551;-86
2023/03/01 11:10:44;;;;;;;13.65;7.28;;;;;;;6.31;85.42;102175.94;4986774;28;20030;-85
2023/03/01 11:13:15;;;;;;;17.23;9.68;;;;;;;6.29;85.67;102168.25;4998728;28;20464;-89
2023/03/01 11:15:41;;;;;;;15.60;9.68;;;;;;;6.27;85.37;102153.66;4989458;28;20061;-93
2023/03/01 11:18:21;;;;;;;14.55;9.48;;;;;;;6.36;84.57;102151.03;4979241;28;20045;-85
2023/03/01 11:20:47;;;;;;;14.98;9.52;;;;;;;6.38;84.40;102157.00;4993945;28;20027;-85
2023/03/01 11:23:13;;;;;;;12.65;8.20;;;;;;;6.30;84.26;102148.53;4983387;28;20037;-89
2023/03/01 11:25:41;;;;;;;13.00;7.72;;;;;;;6.27;84.27;102151.09;4987939;28;20111;-89
2023/03/01 11:28:09;;;;;;;10.43;6.60;;;;;;;6.33;83.52;102151.06;4983922;28;20046;-94
2023/03/01 11:30:47;;;;;;;15.02;6.45;;;;;;;6.40;83.94;102151.88;4991812;28;20596;-92
2023/03/01 11:33:40;;;;;;;10.13;7.10;;;;;;;6.44;84.29;102145.84;4999644;28;20632;-88